Forside
METAR-TAF:

METAR-TAF

Lufthavne :

Curaçao, Nederlandske Antiller

Breddekreds: 12-12N, længdekreds: 068-58W, højde: 9 m

Aktuelle vejr

Denne rapport blev lavet for 22 minutter siden, kl. 09:00 UTC
Vind 8 kt fra østsydøst
Temperatur 26°C
Fugtighed 89%
Tryk 1010 hPa
Sigt 10 km eller mere
Nogle få skyer i en højde af 1700 ft

METAR: TNCC 160900Z 12008KT 9999 FEW017 26/24 Q1010 NOSIG

Tid: 05:22 (09:22 UTC)

Vejrudsigter

Denne rapport blev lavet for 5 timer og 22 minutter siden, kl. 04:00 UTC
Foreløbig gælder fra 16 på 06 UTC til 17 på 06 UTC
Vind 13 kt fra øst
Sigt 10 km eller mere
Spredte skyer i en højde af 2000 ft
Midlertidig
fra 16 på 06 UTC til 17 på 06 UTC
Sigt: 5000 m
Brudte skyer i en højde af 1500 ft
regnbyger
Sandsynlighed 30% :
Midlertidig
fra 16 på 06 UTC til 16 på 18 UTC
Sigt: 4000 m
Nogle få skyer i en højde af 1200 ft, Cumulonimbus.
tordenbyger, regn

TAF: TNCC 160400Z 1606/1706 09013KT 9999 SCT020 TEMPO 1606/1706 5000 SHRA BKN015 PROB30 TEMPO 1606/1618 4000 TSRA FEW012CB

Vejrobservationer og prognoser fra mere end 4000 lufthavne (METAR og TAF).

De gule og røde prikker repræsenterer de meteorologiske stationer.

Flyt musen over at se navnet på stationen.

Så klik over at se vejr observationer og prognoser.

At skifte det kort: Klik på de grønne knapper med et sort kors for at zoome ind; på den grønne knap med en bindestreg for at zoome ud; eller på de grønne pile for tilstødende kort.


METAR-TAF: